createdAt,value
2017-08-26T00:00:22.875Z,17.97
2017-08-26T00:01:20.985Z,17.98
2017-08-26T00:02:20.955Z,17.94
2017-08-26T00:03:20.989Z,17.89
2017-08-26T00:04:20.934Z,17.86
2017-08-26T00:05:20.899Z,17.85
2017-08-26T00:06:20.958Z,17.84
2017-08-26T00:07:21.386Z,17.89
2017-08-26T00:08:20.957Z,17.94
2017-08-26T00:09:21.600Z,17.98
2017-08-26T00:10:21.405Z,17.98
2017-08-26T00:11:20.931Z,18.02
2017-08-26T00:12:21.016Z,18.01
2017-08-26T00:13:20.977Z,18.03
2017-08-26T00:14:21.395Z,18.02
2017-08-26T00:15:20.993Z,18.00
2017-08-26T00:16:21.585Z,18.00
2017-08-26T00:17:20.969Z,18.03
2017-08-26T00:18:20.952Z,18.04
2017-08-26T00:19:20.970Z,18.09
2017-08-26T00:20:21.044Z,18.11
2017-08-26T00:21:21.406Z,18.12
2017-08-26T00:22:20.939Z,18.12
2017-08-26T00:23:21.021Z,18.14
2017-08-26T00:24:20.926Z,18.17
2017-08-26T00:25:20.922Z,18.20
2017-08-26T00:26:20.974Z,18.20
2017-08-26T00:27:20.974Z,18.20
2017-08-26T00:28:21.449Z,18.21
2017-08-26T00:29:20.891Z,18.21
2017-08-26T00:30:20.939Z,18.20
2017-08-26T00:31:20.907Z,18.20
2017-08-26T00:32:21.426Z,18.17
2017-08-26T00:33:20.947Z,18.14
2017-08-26T00:34:20.978Z,18.12
2017-08-26T00:35:21.014Z,18.10
2017-08-26T00:36:21.437Z,18.07
2017-08-26T00:37:20.926Z,18.04
2017-08-26T00:38:20.923Z,18.02
2017-08-26T00:39:20.933Z,18.03
2017-08-26T00:40:20.951Z,18.05
2017-08-26T00:41:21.049Z,18.07
2017-08-26T00:42:20.926Z,18.12
2017-08-26T00:43:21.081Z,18.15
2017-08-26T00:44:20.987Z,18.19
2017-08-26T00:45:21.443Z,18.18
2017-08-26T00:46:20.950Z,18.20
2017-08-26T00:47:20.881Z,18.22
2017-08-26T00:48:20.951Z,18.26
2017-08-26T00:49:20.989Z,18.25
2017-08-26T00:50:20.906Z,18.23
2017-08-26T00:51:20.895Z,18.26
2017-08-26T00:52:20.929Z,18.27
2017-08-26T00:53:20.944Z,18.29
2017-08-26T00:54:20.931Z,18.31
2017-08-26T00:55:20.867Z,18.35
2017-08-26T00:56:21.462Z,18.35
2017-08-26T00:57:21.593Z,18.35
2017-08-26T00:58:20.979Z,18.34
2017-08-26T00:59:21.639Z,18.32
2017-08-26T01:00:20.878Z,18.28
2017-08-26T01:01:20.982Z,18.23
2017-08-26T01:02:21.649Z,18.20
2017-08-26T01:03:20.959Z,18.15
2017-08-26T01:04:20.977Z,18.13
2017-08-26T01:05:21.581Z,18.11
2017-08-26T01:06:20.893Z,18.12
2017-08-26T01:07:20.950Z,18.09
2017-08-26T01:08:21.616Z,18.10
2017-08-26T01:09:21.583Z,18.11
2017-08-26T01:10:20.888Z,18.14
2017-08-26T01:11:20.959Z,18.14
2017-08-26T01:12:20.981Z,18.15
2017-08-26T01:13:21.509Z,18.19
2017-08-26T01:14:21.493Z,18.19
2017-08-26T01:15:20.897Z,18.20
2017-08-26T01:16:20.959Z,18.20
2017-08-26T01:17:20.871Z,18.17
2017-08-26T01:18:20.937Z,18.12
2017-08-26T01:19:21.499Z,18.09
2017-08-26T01:20:22.004Z,18.06
2017-08-26T01:21:20.857Z,18.04
2017-08-26T01:22:20.978Z,18.03
2017-08-26T01:23:20.980Z,18.04
2017-08-26T01:24:20.899Z,18.09
2017-08-26T01:25:20.918Z,18.12
2017-08-26T01:26:20.981Z,18.15
2017-08-26T01:27:20.863Z,18.14
2017-08-26T01:28:22.017Z,18.12
2017-08-26T01:29:20.929Z,18.12
2017-08-26T01:30:20.920Z,18.14
2017-08-26T01:31:21.518Z,18.15
2017-08-26T01:32:20.878Z,18.14
2017-08-26T01:33:21.713Z,18.17
2017-08-26T01:34:21.684Z,18.17
2017-08-26T01:35:21.525Z,18.17
2017-08-26T01:36:21.533Z,18.15
2017-08-26T01:37:21.090Z,18.12
2017-08-26T01:38:20.893Z,18.11
2017-08-26T01:39:20.940Z,18.07
2017-08-26T01:40:21.615Z,18.05
2017-08-26T01:41:20.851Z,18.04
2017-08-26T01:42:20.880Z,18.04
2017-08-26T01:43:20.895Z,18.03
2017-08-26T01:44:21.649Z,18.02
2017-08-26T01:45:21.656Z,18.01
2017-08-26T01:46:20.855Z,17.98
2017-08-26T01:47:20.836Z,17.96
2017-08-26T01:48:21.556Z,17.95
2017-08-26T01:49:21.019Z,17.93
2017-08-26T01:50:20.931Z,17.90
2017-08-26T01:51:20.985Z,17.90
2017-08-26T01:52:21.577Z,17.89
2017-08-26T01:53:20.924Z,17.92
2017-08-26T01:54:20.937Z,17.93
2017-08-26T01:55:20.876Z,17.92
2017-08-26T01:56:21.665Z,17.95
2017-08-26T01:57:21.559Z,17.96
2017-08-26T01:58:20.878Z,18.01
2017-08-26T01:59:20.942Z,18.00
2017-08-26T02:00:20.891Z,17.98
2017-08-26T02:01:20.889Z,17.94
2017-08-26T02:02:20.894Z,17.89
2017-08-26T02:03:21.568Z,17.87
2017-08-26T02:04:21.570Z,17.88
2017-08-26T02:05:20.936Z,17.88
2017-08-26T02:06:20.861Z,17.88
2017-08-26T02:07:20.956Z,17.87
2017-08-26T02:08:21.926Z,17.82
2017-08-26T02:09:21.585Z,17.77
2017-08-26T02:10:20.943Z,17.76
2017-08-26T02:11:21.772Z,17.79
2017-08-26T02:12:20.872Z,17.82
2017-08-26T02:13:20.878Z,17.86
2017-08-26T02:14:21.606Z,17.87
2017-08-26T02:15:20.910Z,17.87
2017-08-26T02:16:21.595Z,17.86
2017-08-26T02:17:20.910Z,17.85
2017-08-26T02:18:21.703Z,17.85
2017-08-26T02:19:20.910Z,17.86
2017-08-26T02:20:20.917Z,17.87
2017-08-26T02:21:20.910Z,17.88
2017-08-26T02:22:20.896Z,17.89
2017-08-26T02:23:20.888Z,17.90
2017-08-26T02:24:20.831Z,17.92
2017-08-26T02:25:21.454Z,17.92
2017-08-26T02:26:20.837Z,17.90
2017-08-26T02:27:21.606Z,17.92
2017-08-26T02:28:21.740Z,17.90
2017-08-26T02:29:20.856Z,17.89
2017-08-26T02:30:20.966Z,17.89
2017-08-26T02:31:20.861Z,17.89
2017-08-26T02:32:20.898Z,17.92
2017-08-26T02:33:21.769Z,17.92
2017-08-26T02:34:20.910Z,17.92
2017-08-26T02:35:20.941Z,17.90
2017-08-26T02:36:20.932Z,17.90
2017-08-26T02:37:20.928Z,17.95
2017-08-26T02:38:20.940Z,17.94
2017-08-26T02:39:20.982Z,17.96
2017-08-26T02:40:20.974Z,18.02
2017-08-26T02:41:21.636Z,18.05
2017-08-26T02:42:20.839Z,18.05
2017-08-26T02:43:20.899Z,18.09
2017-08-26T02:44:20.952Z,18.10
2017-08-26T02:45:20.923Z,18.12
2017-08-26T02:46:21.408Z,18.13
2017-08-26T02:47:20.841Z,18.12
2017-08-26T02:48:20.923Z,18.12
2017-08-26T02:49:20.938Z,18.13
2017-08-26T02:50:20.858Z,18.14
2017-08-26T02:51:20.946Z,18.13
2017-08-26T02:52:20.894Z,18.12
2017-08-26T02:53:21.648Z,18.12
2017-08-26T02:54:20.934Z,18.12
2017-08-26T02:55:20.938Z,18.13
2017-08-26T02:56:21.652Z,18.14
2017-08-26T02:57:20.918Z,18.15
2017-08-26T02:58:20.905Z,18.14
2017-08-26T02:59:21.820Z,18.13
2017-08-26T03:00:20.890Z,18.13
2017-08-26T03:01:20.936Z,18.12
2017-08-26T03:02:20.877Z,18.11
2017-08-26T03:03:20.879Z,18.09
2017-08-26T03:04:20.908Z,18.07
2017-08-26T03:05:20.869Z,18.06
2017-08-26T03:06:22.286Z,18.04
2017-08-26T03:07:21.671Z,18.04
2017-08-26T03:08:20.859Z,18.06
2017-08-26T03:09:21.699Z,18.04
2017-08-26T03:10:21.853Z,18.05
2017-08-26T03:11:21.761Z,18.05
2017-08-26T03:12:20.837Z,18.04
2017-08-26T03:13:20.915Z,18.05
2017-08-26T03:14:21.862Z,18.07
2017-08-26T03:15:20.972Z,18.07
2017-08-26T03:16:20.893Z,18.09
2017-08-26T03:17:20.884Z,18.10
2017-08-26T03:18:21.888Z,18.09
2017-08-26T03:19:21.691Z,18.09
2017-08-26T03:20:20.905Z,18.10
2017-08-26T03:21:21.694Z,18.09
2017-08-26T03:22:20.827Z,18.07
2017-08-26T03:23:21.698Z,18.07
2017-08-26T03:24:20.901Z,18.07
2017-08-26T03:25:20.877Z,18.04
2017-08-26T03:26:20.839Z,18.05
2017-08-26T03:27:20.870Z,18.07
2017-08-26T03:28:20.834Z,18.06
2017-08-26T03:29:20.838Z,18.07
2017-08-26T03:30:20.834Z,18.06
2017-08-26T03:31:20.848Z,18.05
2017-08-26T03:32:20.901Z,18.05
2017-08-26T03:33:20.961Z,18.04
2017-08-26T03:34:20.838Z,18.07
2017-08-26T03:35:20.849Z,18.05
2017-08-26T03:36:21.765Z,18.06
2017-08-26T03:37:21.847Z,18.07
2017-08-26T03:38:20.815Z,18.07
2017-08-26T03:39:20.872Z,18.09
2017-08-26T03:40:20.939Z,18.10
2017-08-26T03:41:20.854Z,18.11
2017-08-26T03:42:20.863Z,18.12
2017-08-26T03:43:20.831Z,18.13
2017-08-26T03:44:20.833Z,18.15
2017-08-26T03:45:20.799Z,18.17
2017-08-26T03:46:20.840Z,18.20
2017-08-26T03:47:21.736Z,18.20
2017-08-26T03:48:21.501Z,18.19
2017-08-26T03:49:20.829Z,18.18
2017-08-26T03:50:20.936Z,18.19
2017-08-26T03:51:20.945Z,18.18
2017-08-26T03:52:21.891Z,18.18
2017-08-26T03:53:21.743Z,18.19
2017-08-26T03:54:21.254Z,18.18
2017-08-26T03:55:20.962Z,18.15
2017-08-26T03:56:20.803Z,18.14
2017-08-26T03:57:20.852Z,18.14
2017-08-26T03:58:20.817Z,18.12
2017-08-26T03:59:21.751Z,18.10
2017-08-26T04:00:20.954Z,18.07
2017-08-26T04:01:21.271Z,18.07
2017-08-26T04:02:20.936Z,18.06
2017-08-26T04:03:20.815Z,18.04
2017-08-26T04:04:21.261Z,18.03
2017-08-26T04:05:20.781Z,18.01
2017-08-26T04:06:21.374Z,17.98
2017-08-26T04:07:20.883Z,17.96
2017-08-26T04:08:21.766Z,17.95
2017-08-26T04:09:20.824Z,17.96
2017-08-26T04:10:21.285Z,17.96
2017-08-26T04:11:20.864Z,17.96
2017-08-26T04:12:21.412Z,17.94
2017-08-26T04:13:21.397Z,17.95
2017-08-26T04:14:21.275Z,17.94
2017-08-26T04:15:20.770Z,17.92
2017-08-26T04:16:20.863Z,17.94
2017-08-26T04:17:21.287Z,17.95
2017-08-26T04:18:20.859Z,17.93
2017-08-26T04:19:20.827Z,17.93
2017-08-26T04:20:20.879Z,17.90
2017-08-26T04:21:20.871Z,17.89
2017-08-26T04:22:20.864Z,17.87
2017-08-26T04:23:21.436Z,17.84
2017-08-26T04:24:20.842Z,17.84
2017-08-26T04:25:20.817Z,17.80
2017-08-26T04:26:21.295Z,17.78
2017-08-26T04:27:20.849Z,17.77
2017-08-26T04:28:21.903Z,17.75
2017-08-26T04:29:20.898Z,17.73
2017-08-26T04:30:20.866Z,17.75
2017-08-26T04:31:20.842Z,17.76
2017-08-26T04:32:20.841Z,17.77
2017-08-26T04:33:20.913Z,17.79
2017-08-26T04:34:20.822Z,17.77
2017-08-26T04:35:21.313Z,17.75
2017-08-26T04:36:21.837Z,17.75
2017-08-26T04:37:20.947Z,17.77
2017-08-26T04:38:21.509Z,17.75
2017-08-26T04:39:20.788Z,17.76
2017-08-26T04:40:20.868Z,17.75
2017-08-26T04:41:21.331Z,17.76
2017-08-26T04:42:20.786Z,17.78
2017-08-26T04:43:20.866Z,17.79
2017-08-26T04:44:20.826Z,17.80
2017-08-26T04:45:21.411Z,17.81
2017-08-26T04:46:20.885Z,17.82
2017-08-26T04:47:21.470Z,17.81
2017-08-26T04:48:21.329Z,17.81
2017-08-26T04:49:20.914Z,17.82
2017-08-26T04:50:20.816Z,17.82
2017-08-26T04:51:20.820Z,17.85
2017-08-26T04:52:21.471Z,17.85
2017-08-26T04:53:20.767Z,17.87
2017-08-26T04:54:20.802Z,17.89
2017-08-26T04:55:20.761Z,17.90
2017-08-26T04:56:21.927Z,17.89
2017-08-26T04:57:20.817Z,17.90
2017-08-26T04:58:21.346Z,17.92
2017-08-26T04:59:21.350Z,17.92
2017-08-26T05:00:20.888Z,17.93
2017-08-26T05:01:20.796Z,17.93
2017-08-26T05:02:20.826Z,17.92
2017-08-26T05:03:20.822Z,17.90
2017-08-26T05:04:21.116Z,17.88
2017-08-26T05:05:20.932Z,17.87
2017-08-26T05:06:21.358Z,17.85
2017-08-26T05:07:20.848Z,17.82
2017-08-26T05:08:21.366Z,17.84
2017-08-26T05:09:20.867Z,17.79
2017-08-26T05:10:21.365Z,17.79
2017-08-26T05:11:20.732Z,17.77
2017-08-26T05:12:21.455Z,17.73
2017-08-26T05:13:20.823Z,17.72
2017-08-26T05:14:20.883Z,17.73
2017-08-26T05:15:20.754Z,17.78
2017-08-26T05:16:20.872Z,17.79
2017-08-26T05:17:20.859Z,17.80
2017-08-26T05:18:21.384Z,17.81
2017-08-26T05:19:20.962Z,17.84
2017-08-26T05:20:22.383Z,17.82
2017-08-26T05:21:21.477Z,17.79
2017-08-26T05:22:21.393Z,17.77
2017-08-26T05:23:22.392Z,17.72
2017-08-26T05:24:21.388Z,17.72
2017-08-26T05:25:20.821Z,17.79
2017-08-26T05:26:20.818Z,17.80
2017-08-26T05:27:20.818Z,17.79
2017-08-26T05:28:20.789Z,17.76
2017-08-26T05:29:20.790Z,17.77
2017-08-26T05:30:22.400Z,17.80
2017-08-26T05:31:21.411Z,17.87
2017-08-26T05:32:20.849Z,17.92
2017-08-26T05:33:20.867Z,17.97
2017-08-26T05:34:21.406Z,18.04
2017-08-26T05:35:20.799Z,18.10
2017-08-26T05:36:20.778Z,18.13
2017-08-26T05:37:20.776Z,18.17
2017-08-26T05:38:20.849Z,18.20
2017-08-26T05:39:20.828Z,18.25
2017-08-26T05:40:20.817Z,18.32
2017-08-26T05:41:20.903Z,18.40
2017-08-26T05:42:21.417Z,18.47
2017-08-26T05:43:20.853Z,18.56
2017-08-26T05:44:21.428Z,18.67
2017-08-26T05:45:20.755Z,18.71
2017-08-26T05:46:21.426Z,18.76
2017-08-26T05:47:21.566Z,18.79
2017-08-26T05:48:20.739Z,18.81
2017-08-26T05:49:20.731Z,18.85
2017-08-26T05:50:21.503Z,18.85
2017-08-26T05:51:21.436Z,18.87
2017-08-26T05:52:22.433Z,18.88
2017-08-26T05:53:20.774Z,18.92
2017-08-26T05:54:21.618Z,18.95
2017-08-26T05:55:20.828Z,18.95
2017-08-26T05:56:20.819Z,18.93
2017-08-26T05:57:20.786Z,18.89
2017-08-26T05:58:22.455Z,18.85
2017-08-26T05:59:21.442Z,18.81
2017-08-26T06:00:20.837Z,18.81
2017-08-26T06:01:20.871Z,18.79
2017-08-26T06:02:20.832Z,18.79
2017-08-26T06:03:21.531Z,18.81
2017-08-26T06:04:20.777Z,18.82
2017-08-26T06:05:20.882Z,18.86
2017-08-26T06:06:20.853Z,18.84
2017-08-26T06:07:20.929Z,18.81
2017-08-26T06:08:20.789Z,18.79
2017-08-26T06:09:21.582Z,18.77
2017-08-26T06:10:21.459Z,18.76
2017-08-26T06:11:20.727Z,18.73
2017-08-26T06:12:20.813Z,18.73
2017-08-26T06:13:21.467Z,18.77
2017-08-26T06:14:20.796Z,18.78
2017-08-26T06:15:20.778Z,18.78
2017-08-26T06:16:20.846Z,18.78
2017-08-26T06:17:20.806Z,18.79
2017-08-26T06:18:21.498Z,18.80
2017-08-26T06:19:20.820Z,18.82
2017-08-26T06:20:20.792Z,18.87
2017-08-26T06:21:20.769Z,18.87
2017-08-26T06:22:21.510Z,18.87
2017-08-26T06:23:20.803Z,18.88
2017-08-26T06:24:20.728Z,18.87
2017-08-26T06:25:20.814Z,18.88
2017-08-26T06:26:20.874Z,18.92
2017-08-26T06:27:20.778Z,18.93
2017-08-26T06:28:20.733Z,18.93
2017-08-26T06:29:20.794Z,18.96
2017-08-26T06:30:20.764Z,19.00
2017-08-26T06:31:21.609Z,19.03
2017-08-26T06:32:20.803Z,19.04
2017-08-26T06:33:20.765Z,19.03
2017-08-26T06:34:20.768Z,19.03
2017-08-26T06:35:20.713Z,19.03
2017-08-26T06:36:20.848Z,19.04
2017-08-26T06:37:20.794Z,19.07
2017-08-26T06:38:20.810Z,19.10
2017-08-26T06:39:20.766Z,19.07
2017-08-26T06:40:20.847Z,19.10
2017-08-26T06:41:20.895Z,19.12
2017-08-26T06:42:20.740Z,19.12
2017-08-26T06:43:20.772Z,19.12
2017-08-26T06:44:21.550Z,19.13
2017-08-26T06:45:20.832Z,19.15
2017-08-26T06:46:21.598Z,19.17
2017-08-26T06:47:21.522Z,19.17
2017-08-26T06:48:20.854Z,19.20
2017-08-26T06:49:20.879Z,19.21
2017-08-26T06:50:20.776Z,19.28
2017-08-26T06:51:20.706Z,19.29
2017-08-26T06:52:21.558Z,19.31
2017-08-26T06:53:20.750Z,19.35
2017-08-26T06:54:20.775Z,19.37
2017-08-26T06:55:20.919Z,19.38
2017-08-26T06:56:21.672Z,19.38
2017-08-26T06:57:20.763Z,19.43
2017-08-26T06:58:20.736Z,19.45
2017-08-26T06:59:20.774Z,19.50
2017-08-26T07:00:20.802Z,19.53
2017-08-26T07:01:20.817Z,19.54
2017-08-26T07:02:21.730Z,19.53
2017-08-26T07:03:20.767Z,19.54
2017-08-26T07:04:20.825Z,19.54
2017-08-26T07:05:21.556Z,19.55
2017-08-26T07:06:21.678Z,19.59
2017-08-26T07:07:20.805Z,19.61
2017-08-26T07:08:20.887Z,19.62
2017-08-26T07:09:21.710Z,19.62
2017-08-26T07:10:20.734Z,19.65
2017-08-26T07:11:20.782Z,19.69
2017-08-26T07:12:20.732Z,19.71
2017-08-26T07:13:21.566Z,19.79
2017-08-26T07:14:21.563Z,19.86
2017-08-26T07:15:21.591Z,19.93
2017-08-26T07:16:21.566Z,20.06
2017-08-26T07:17:21.086Z,20.20
2017-08-26T07:18:20.835Z,20.26
2017-08-26T07:19:20.813Z,20.34
2017-08-26T07:20:20.785Z,20.37
2017-08-26T07:21:22.582Z,20.42
2017-08-26T07:22:20.937Z,20.42
2017-08-26T07:23:21.278Z,20.38
2017-08-26T07:24:20.758Z,20.37
2017-08-26T07:25:20.775Z,20.37
2017-08-26T07:26:20.779Z,20.50
2017-08-26T07:27:20.871Z,20.54
2017-08-26T07:28:20.811Z,20.54
2017-08-26T07:29:21.586Z,20.48
2017-08-26T07:30:20.724Z,20.45
2017-08-26T07:31:20.695Z,20.45
2017-08-26T07:32:20.793Z,20.44
2017-08-26T07:33:20.860Z,20.51
2017-08-26T07:34:21.595Z,20.62
2017-08-26T07:35:20.816Z,20.64
2017-08-26T07:36:20.763Z,20.67
2017-08-26T07:37:20.715Z,20.62
2017-08-26T07:38:20.770Z,20.54
2017-08-26T07:39:21.604Z,20.51
2017-08-26T07:40:20.842Z,20.47
2017-08-26T07:41:20.803Z,20.47
2017-08-26T07:42:21.608Z,20.50
2017-08-26T07:43:20.742Z,20.55
2017-08-26T07:44:20.812Z,20.62
2017-08-26T07:45:20.731Z,20.63
2017-08-26T07:46:20.822Z,20.65
2017-08-26T07:47:21.618Z,20.68
2017-08-26T07:48:20.813Z,20.79
2017-08-26T07:49:20.869Z,20.93
2017-08-26T07:50:20.821Z,21.07
2017-08-26T07:51:22.624Z,21.21
2017-08-26T07:52:20.795Z,21.27
2017-08-26T07:53:20.797Z,21.23
2017-08-26T07:54:20.789Z,21.14
2017-08-26T07:55:20.847Z,21.12
2017-08-26T07:56:21.654Z,21.14
2017-08-26T07:57:21.136Z,21.19
2017-08-26T07:58:20.811Z,21.22
2017-08-26T07:59:21.636Z,21.29
2017-08-26T08:00:21.139Z,21.29
2017-08-26T08:01:20.840Z,21.35
2017-08-26T08:02:22.142Z,21.35
2017-08-26T08:03:20.790Z,21.32
2017-08-26T08:04:21.151Z,21.32
2017-08-26T08:05:21.651Z,21.32
2017-08-26T08:06:20.822Z,21.40
2017-08-26T08:07:20.801Z,21.45
2017-08-26T08:08:20.817Z,21.54
2017-08-26T08:09:20.721Z,21.65
2017-08-26T08:10:20.808Z,21.72
2017-08-26T08:11:20.772Z,21.77
2017-08-26T08:12:20.799Z,21.80
2017-08-26T08:13:20.809Z,21.87
2017-08-26T08:14:20.792Z,22.02
2017-08-26T08:15:20.792Z,22.07
2017-08-26T08:16:20.788Z,22.17
2017-08-26T08:17:20.784Z,22.12
2017-08-26T08:18:21.362Z,22.04
2017-08-26T08:19:20.844Z,21.96
2017-08-26T08:20:20.728Z,21.93
2017-08-26T08:21:20.722Z,21.88
2017-08-26T08:22:20.770Z,21.86
2017-08-26T08:23:20.746Z,21.87
2017-08-26T08:24:20.858Z,21.92
2017-08-26T08:25:20.736Z,21.94
2017-08-26T08:26:20.829Z,22.00
2017-08-26T08:27:20.736Z,22.04
2017-08-26T08:28:20.701Z,22.11
2017-08-26T08:29:21.346Z,22.13
2017-08-26T08:30:20.693Z,22.10
2017-08-26T08:31:20.734Z,22.10
2017-08-26T08:32:21.256Z,22.10
2017-08-26T08:33:21.309Z,22.10
2017-08-26T08:34:20.795Z,22.17
2017-08-26T08:35:22.208Z,22.22
2017-08-26T08:36:21.200Z,22.23
2017-08-26T08:37:21.294Z,22.25
2017-08-26T08:38:20.818Z,22.25
2017-08-26T08:39:20.845Z,22.28
2017-08-26T08:40:20.748Z,22.32
2017-08-26T08:41:21.208Z,22.34
2017-08-26T08:42:20.802Z,22.35
2017-08-26T08:43:20.779Z,22.31
2017-08-26T08:44:20.731Z,22.35
2017-08-26T08:45:21.366Z,22.32
2017-08-26T08:46:21.242Z,22.36
2017-08-26T08:47:20.758Z,22.36
2017-08-26T08:48:20.765Z,22.37
2017-08-26T08:49:21.219Z,22.39
2017-08-26T08:50:21.221Z,22.38
2017-08-26T08:51:20.697Z,22.44
2017-08-26T08:52:20.744Z,22.50
2017-08-26T08:53:20.767Z,22.45
2017-08-26T08:54:21.375Z,22.42
2017-08-26T08:55:21.241Z,22.36
2017-08-26T08:56:20.752Z,22.34
2017-08-26T08:57:20.703Z,22.45
2017-08-26T08:58:20.681Z,22.51
2017-08-26T08:59:20.862Z,22.53
2017-08-26T09:00:21.237Z,22.51
2017-08-26T09:01:21.242Z,22.54
2017-08-26T09:02:20.791Z,22.69
2017-08-26T09:03:21.353Z,22.67
2017-08-26T09:04:21.757Z,22.62
2017-08-26T09:05:20.690Z,22.67
2017-08-26T09:06:20.807Z,22.70
2017-08-26T09:07:20.719Z,22.75
2017-08-26T09:08:20.691Z,22.72
2017-08-26T09:09:21.257Z,22.79
2017-08-26T09:10:20.803Z,22.84
2017-08-26T09:11:21.456Z,22.88
2017-08-26T09:12:20.721Z,22.90
2017-08-26T09:13:21.260Z,22.92
2017-08-26T09:14:21.268Z,22.90
2017-08-26T09:15:20.757Z,22.92
2017-08-26T09:16:20.733Z,22.94
2017-08-26T09:17:20.688Z,22.95
2017-08-26T09:18:21.767Z,23.02
2017-08-26T09:19:21.269Z,23.09
2017-08-26T09:20:20.734Z,23.05
2017-08-26T09:21:21.364Z,23.06
2017-08-26T09:22:21.279Z,23.12
2017-08-26T09:23:20.701Z,23.17
2017-08-26T09:24:22.298Z,23.12
2017-08-26T09:25:20.774Z,23.18
2017-08-26T09:26:22.301Z,23.29
2017-08-26T09:27:20.713Z,23.47
2017-08-26T09:28:21.308Z,23.64
2017-08-26T09:29:20.708Z,23.82
2017-08-26T09:30:20.766Z,23.93
2017-08-26T09:31:20.749Z,23.95
2017-08-26T09:32:20.695Z,24.04
2017-08-26T09:33:20.699Z,24.04
2017-08-26T09:34:21.526Z,24.03
2017-08-26T09:35:20.694Z,24.09
2017-08-26T09:36:21.306Z,24.20
2017-08-26T09:37:20.701Z,24.34
2017-08-26T09:38:21.413Z,24.43
2017-08-26T09:39:20.697Z,24.52
2017-08-26T09:40:20.741Z,24.52
2017-08-26T09:41:20.733Z,24.59
2017-08-26T09:42:20.824Z,24.70
2017-08-26T09:43:20.673Z,24.77
2017-08-26T09:44:20.648Z,25.00
2017-08-26T09:45:21.325Z,25.10
2017-08-26T09:46:20.743Z,25.20
2017-08-26T09:47:20.745Z,25.19
2017-08-26T09:48:20.626Z,25.22
2017-08-26T09:49:21.343Z,25.18
2017-08-26T09:50:21.322Z,25.15
2017-08-26T09:51:20.735Z,25.12
2017-08-26T09:52:20.729Z,25.13
2017-08-26T09:53:22.330Z,25.12
2017-08-26T09:54:20.649Z,25.12
2017-08-26T09:55:20.742Z,24.81
2017-08-26T09:56:20.723Z,24.86
2017-08-26T09:57:20.813Z,24.95
2017-08-26T09:58:21.337Z,25.03
2017-08-26T09:59:21.350Z,25.18
2017-08-26T10:00:20.714Z,25.23
2017-08-26T10:01:21.849Z,25.31
2017-08-26T10:02:20.684Z,25.35
2017-08-26T10:03:20.630Z,25.40
2017-08-26T10:04:20.691Z,25.43
2017-08-26T10:05:21.439Z,25.50
2017-08-26T10:06:20.890Z,25.54
2017-08-26T10:07:21.357Z,25.53
2017-08-26T10:08:21.376Z,25.54
2017-08-26T10:09:20.673Z,25.46
2017-08-26T10:10:20.679Z,25.28
2017-08-26T10:11:21.362Z,25.39
2017-08-26T10:12:20.771Z,25.54
2017-08-26T10:13:20.650Z,25.45
2017-08-26T10:14:21.460Z,25.48
2017-08-26T10:15:20.644Z,25.54
2017-08-26T10:16:21.367Z,25.56
2017-08-26T10:17:20.749Z,25.48
2017-08-26T10:18:20.684Z,25.54
2017-08-26T10:19:20.706Z,25.63
2017-08-26T10:20:22.374Z,25.76
2017-08-26T10:21:22.065Z,25.88
2017-08-26T10:22:21.378Z,26.00
2017-08-26T10:23:21.666Z,26.20
2017-08-26T10:24:20.695Z,26.31
2017-08-26T10:25:21.389Z,26.39
2017-08-26T10:26:21.385Z,26.37
2017-08-26T10:27:20.683Z,26.43
2017-08-26T10:28:20.669Z,26.45
2017-08-26T10:29:21.574Z,26.39
2017-08-26T10:30:20.780Z,26.37
2017-08-26T10:31:22.539Z,26.44
2017-08-26T10:32:21.399Z,26.48
2017-08-26T10:33:21.396Z,26.53
2017-08-26T10:34:20.673Z,26.61
2017-08-26T10:35:21.403Z,26.47
2017-08-26T10:36:20.689Z,26.45
2017-08-26T10:37:21.409Z,26.51
2017-08-26T10:38:20.708Z,26.50
2017-08-26T10:39:21.501Z,26.50
2017-08-26T10:40:21.508Z,26.50
2017-08-26T10:41:21.411Z,26.61
2017-08-26T10:42:21.914Z,26.63
2017-08-26T10:43:20.703Z,26.72
2017-08-26T10:44:21.940Z,26.65
2017-08-26T10:45:20.668Z,26.68
2017-08-26T10:46:20.693Z,26.67
2017-08-26T10:47:20.696Z,26.71
2017-08-26T10:48:20.669Z,26.60
2017-08-26T10:49:21.426Z,26.67
2017-08-26T10:50:20.690Z,26.79
2017-08-26T10:51:21.429Z,26.89
2017-08-26T10:52:20.725Z,26.95
2017-08-26T10:53:22.432Z,26.92
2017-08-26T10:54:20.682Z,26.68
2017-08-26T10:55:21.451Z,26.62
2017-08-26T10:56:20.652Z,26.62
2017-08-26T10:57:21.444Z,26.59
2017-08-26T10:58:20.641Z,26.60
2017-08-26T10:59:21.643Z,26.59
2017-08-26T11:00:21.675Z,26.71
2017-08-26T11:01:21.620Z,26.78
2017-08-26T11:02:20.713Z,26.87
2017-08-26T11:03:21.459Z,26.98
2017-08-26T11:04:22.455Z,27.04
2017-08-26T11:05:20.683Z,27.13
2017-08-26T11:06:20.663Z,27.28
2017-08-26T11:07:20.667Z,27.32
2017-08-26T11:08:20.703Z,27.34
2017-08-26T11:09:20.682Z,27.29
2017-08-26T11:10:21.471Z,27.20
2017-08-26T11:11:20.721Z,27.28
2017-08-26T11:12:21.550Z,27.30
2017-08-26T11:13:20.718Z,27.35
2017-08-26T11:14:20.679Z,27.32
2017-08-26T11:15:20.587Z,27.39
2017-08-26T11:16:20.684Z,27.42
2017-08-26T11:17:20.659Z,27.44
2017-08-26T11:18:20.709Z,27.44
2017-08-26T11:19:20.625Z,27.55
2017-08-26T11:20:20.617Z,27.71
2017-08-26T11:21:20.568Z,27.79
2017-08-26T11:22:20.727Z,27.88
2017-08-26T11:23:20.642Z,27.92
2017-08-26T11:24:20.583Z,27.84
2017-08-26T11:25:20.577Z,27.82
2017-08-26T11:26:21.655Z,27.86
2017-08-26T11:27:20.703Z,27.92
2017-08-26T11:28:20.702Z,27.96
2017-08-26T11:29:20.667Z,27.94
2017-08-26T11:30:20.610Z,27.87
2017-08-26T11:31:20.675Z,27.88
2017-08-26T11:32:20.635Z,27.86
2017-08-26T11:33:20.695Z,27.84
2017-08-26T11:34:20.637Z,27.86
2017-08-26T11:35:20.660Z,28.00
2017-08-26T11:36:21.583Z,28.02
2017-08-26T11:37:20.719Z,27.95
2017-08-26T11:38:20.711Z,28.03
2017-08-26T11:39:20.677Z,28.04
2017-08-26T11:40:21.575Z,28.07
2017-08-26T11:41:20.748Z,28.09
2017-08-26T11:42:21.519Z,28.09
2017-08-26T11:43:20.714Z,28.04
2017-08-26T11:44:21.651Z,28.02
2017-08-26T11:45:20.689Z,27.93
2017-08-26T11:46:20.730Z,27.93
2017-08-26T11:47:21.158Z,27.95
2017-08-26T11:48:20.628Z,27.96
2017-08-26T11:49:21.677Z,28.12
2017-08-26T11:50:20.654Z,28.31
2017-08-26T11:51:20.635Z,28.44
2017-08-26T11:52:21.191Z,28.47
2017-08-26T11:53:23.542Z,28.47
2017-08-26T11:54:20.671Z,28.51
2017-08-26T11:55:20.639Z,28.50
2017-08-26T11:56:21.114Z,28.52
2017-08-26T11:57:20.644Z,28.54
2017-08-26T11:58:21.281Z,28.62
2017-08-26T11:59:20.700Z,28.72
2017-08-26T12:00:22.057Z,28.75
2017-08-26T12:01:21.054Z,28.76
2017-08-26T12:02:20.639Z,28.73
2017-08-26T12:03:20.653Z,28.69
2017-08-26T12:04:21.144Z,28.65
2017-08-26T12:05:20.616Z,28.61
2017-08-26T12:06:20.706Z,28.60
2017-08-26T12:07:20.636Z,28.59
2017-08-26T12:08:21.066Z,28.60
2017-08-26T12:09:20.994Z,28.62
2017-08-26T12:10:20.653Z,28.62
2017-08-26T12:11:20.695Z,28.62
2017-08-26T12:12:21.077Z,28.79
2017-08-26T12:13:20.724Z,28.82
2017-08-26T12:14:20.878Z,28.88
2017-08-26T12:15:21.580Z,28.92
2017-08-26T12:16:20.709Z,28.92
2017-08-26T12:17:21.583Z,29.05
2017-08-26T12:18:21.087Z,29.21
2017-08-26T12:19:20.648Z,29.23
2017-08-26T12:20:20.772Z,29.35
2017-08-26T12:21:20.668Z,29.40
2017-08-26T12:22:20.628Z,29.38
2017-08-26T12:23:20.691Z,29.44
2017-08-26T12:24:20.727Z,29.45
2017-08-26T12:25:21.615Z,29.54
2017-08-26T12:26:21.618Z,29.54
2017-08-26T12:27:21.240Z,29.60
2017-08-26T12:28:20.629Z,29.57
2017-08-26T12:29:20.630Z,29.72
2017-08-26T12:30:21.122Z,29.81
2017-08-26T12:31:20.584Z,29.95
2017-08-26T12:32:20.577Z,30.12
2017-08-26T12:33:20.601Z,30.14
2017-08-26T12:34:21.293Z,30.18
2017-08-26T12:35:21.269Z,30.19
2017-08-26T12:36:20.574Z,30.17
2017-08-26T12:37:20.737Z,30.19
2017-08-26T12:38:20.612Z,30.27
2017-08-26T12:39:20.620Z,30.37
2017-08-26T12:40:20.603Z,30.36
2017-08-26T12:41:20.591Z,30.61
2017-08-26T12:42:20.718Z,30.77
2017-08-26T12:43:20.689Z,30.96
2017-08-26T12:44:20.599Z,31.45
2017-08-26T12:45:20.644Z,31.72
2017-08-26T12:46:21.299Z,31.95
2017-08-26T12:47:20.664Z,32.15
2017-08-26T12:48:20.645Z,32.41
2017-08-26T12:49:20.624Z,32.50
2017-08-26T12:50:20.657Z,32.45
2017-08-26T12:51:20.630Z,32.08
2017-08-26T12:52:21.144Z,31.69